createdAt,value
2023-02-21T00:01:10.436Z,68.78
2023-02-21T00:06:31.243Z,68.66
2023-02-21T00:11:52.271Z,69.24
2023-02-21T00:17:13.553Z,68.78
2023-02-21T00:22:35.314Z,69.10
2023-02-21T00:27:56.085Z,68.93
2023-02-21T00:33:17.018Z,68.37
2023-02-21T00:38:37.847Z,68.23
2023-02-21T00:43:58.891Z,68.30
2023-02-21T00:49:20.350Z,67.69
2023-02-21T00:54:41.554Z,67.20
2023-02-21T01:00:05.145Z,66.78
2023-02-21T01:05:26.841Z,66.57
2023-02-21T01:10:47.876Z,66.99
2023-02-21T01:16:09.366Z,66.43
2023-02-21T01:21:38.904Z,66.63
2023-02-21T01:27:00.108Z,66.95
2023-02-21T01:32:20.959Z,66.68
2023-02-21T01:37:42.233Z,67.23
2023-02-21T01:43:04.229Z,66.90
2023-02-21T01:48:27.315Z,66.95
2023-02-21T01:53:49.501Z,66.88
2023-02-21T01:59:13.883Z,66.35
2023-02-21T02:04:35.046Z,66.35
2023-02-21T02:09:56.320Z,66.62
2023-02-21T02:15:13.255Z,66.31
2023-02-21T02:20:40.904Z,66.70
2023-02-21T02:26:21.094Z,66.64
2023-02-21T02:31:43.339Z,66.68
2023-02-21T02:37:13.709Z,66.88
2023-02-21T02:42:40.708Z,66.60
2023-02-21T02:47:50.897Z,66.84
2023-02-21T02:52:55.908Z,66.62
2023-02-21T02:58:03.779Z,66.59
2023-02-21T03:03:37.463Z,66.51
2023-02-21T03:08:57.518Z,66.74
2023-02-21T03:14:13.721Z,66.61
2023-02-21T03:19:39.245Z,66.99
2023-02-21T03:24:44.789Z,67.05
2023-02-21T03:30:08.720Z,67.04
2023-02-21T03:35:11.499Z,66.76
2023-02-21T03:40:24.918Z,66.28
2023-02-21T03:45:28.998Z,66.98
2023-02-21T03:50:42.494Z,66.33
2023-02-21T03:55:45.635Z,66.13
2023-02-21T04:00:57.420Z,66.37
2023-02-21T04:06:00.447Z,66.80
2023-02-21T04:11:04.515Z,66.51
2023-02-21T04:21:33.384Z,67.33
2023-02-21T04:26:36.597Z,67.72
2023-02-21T04:31:40.601Z,67.64
2023-02-21T04:36:48.139Z,67.77
2023-02-21T04:41:53.298Z,67.02
2023-02-21T04:46:56.019Z,67.23
2023-02-21T04:52:01.376Z,68.29
2023-02-21T04:57:03.943Z,67.50
2023-02-21T05:02:06.770Z,68.23
2023-02-21T05:07:09.521Z,67.74
2023-02-21T05:12:12.360Z,67.52
2023-02-21T05:17:14.913Z,67.71
2023-02-21T05:22:20.717Z,67.49
2023-02-21T05:27:25.700Z,66.80
2023-02-21T05:32:31.184Z,66.25
2023-02-21T05:37:33.901Z,66.03
2023-02-21T05:42:36.483Z,65.54
2023-02-21T05:47:39.046Z,64.90
2023-02-21T05:52:41.525Z,64.40
2023-02-21T05:57:44.294Z,63.83
2023-02-21T06:02:47.280Z,63.31
2023-02-21T06:07:50.202Z,62.58
2023-02-21T06:12:52.865Z,62.14
2023-02-21T06:17:55.327Z,61.81
2023-02-21T06:22:57.908Z,60.65
2023-02-21T06:28:00.556Z,61.39
2023-02-21T06:33:03.373Z,59.87
2023-02-21T06:38:08.817Z,59.63
2023-02-21T06:43:11.441Z,59.31
2023-02-21T06:48:18.509Z,59.18
2023-02-21T06:53:21.050Z,58.97
2023-02-21T06:58:25.201Z,59.78
2023-02-21T07:03:28.501Z,59.30
2023-02-21T07:08:31.130Z,60.92
2023-02-21T07:13:34.590Z,61.51
2023-02-21T07:18:37.133Z,63.97
2023-02-21T07:23:40.211Z,64.24
2023-02-21T07:28:44.575Z,65.78
2023-02-21T07:33:47.348Z,64.60
2023-02-21T07:38:52.174Z,66.39
2023-02-21T07:43:57.130Z,68.27
2023-02-21T07:48:59.758Z,69.03
2023-02-21T07:54:03.577Z,68.50
2023-02-21T07:59:06.973Z,69.47
2023-02-21T08:04:10.963Z,70.81
2023-02-21T08:09:16.725Z,70.64
2023-02-21T08:14:19.482Z,72.11
2023-02-21T08:19:22.362Z,73.99
2023-02-21T08:24:27.712Z,74.40
2023-02-21T08:29:30.452Z,74.22
2023-02-21T08:34:33.023Z,75.50
2023-02-21T08:39:36.261Z,74.87
2023-02-21T08:44:40.477Z,75.92
2023-02-21T08:49:49.726Z,75.62
2023-02-21T08:54:52.378Z,75.15
2023-02-21T08:59:55.157Z,76.08
2023-02-21T09:05:01.108Z,75.76
2023-02-21T09:10:05.383Z,75.07
2023-02-21T09:15:09.654Z,75.90
2023-02-21T09:20:18.373Z,75.88
2023-02-21T09:25:24.883Z,76.71
2023-02-21T09:30:31.982Z,77.06
2023-02-21T09:35:35.554Z,77.39
2023-02-21T09:40:59.132Z,77.53
2023-02-21T09:46:12.802Z,78.25
2023-02-21T09:51:17.282Z,78.54
2023-02-21T09:56:29.928Z,79.40
2023-02-21T10:01:54.278Z,80.15
2023-02-21T10:07:38.750Z,79.90
2023-02-21T10:12:52.814Z,79.81
2023-02-21T10:18:19.640Z,80.56
2023-02-21T10:23:49.422Z,80.86
2023-02-21T10:28:56.458Z,81.47
2023-02-21T10:34:01.155Z,80.33
2023-02-21T10:39:21.721Z,80.53
2023-02-21T10:44:31.213Z,80.48
2023-02-21T10:49:47.261Z,80.23
2023-02-21T10:55:06.204Z,79.42
2023-02-21T11:00:20.280Z,80.05
2023-02-21T11:05:24.508Z,79.98
2023-02-21T11:10:31.503Z,80.29
2023-02-21T11:15:34.821Z,80.05
2023-02-21T11:20:38.167Z,80.40
2023-02-21T11:25:41.150Z,79.31
2023-02-21T11:31:21.939Z,80.06
2023-02-21T11:36:36.409Z,80.19
2023-02-21T11:41:49.223Z,79.85
2023-02-21T11:47:05.350Z,79.42
2023-02-21T11:52:13.745Z,80.45
2023-02-21T11:57:45.390Z,80.35
2023-02-21T12:03:08.145Z,79.95
2023-02-21T12:08:35.729Z,79.94
2023-02-21T12:13:59.969Z,81.11
2023-02-21T12:19:11.481Z,80.77
2023-02-21T12:24:21.384Z,80.85
2023-02-21T12:29:23.759Z,80.91
2023-02-21T12:35:04.868Z,81.34
2023-02-21T12:40:34.248Z,81.37
2023-02-21T12:46:02.923Z,81.19
2023-02-21T12:51:20.821Z,81.36
2023-02-21T12:56:33.500Z,81.16
2023-02-21T13:01:43.641Z,81.00
2023-02-21T13:06:57.547Z,81.42
2023-02-21T13:12:14.083Z,81.33
2023-02-21T13:17:18.517Z,81.88
2023-02-21T13:23:16.702Z,82.16
2023-02-21T13:28:39.722Z,82.88
2023-02-21T13:33:45.257Z,81.98
2023-02-21T13:39:00.017Z,82.28
2023-02-21T13:44:08.476Z,81.92
2023-02-21T13:49:38.525Z,82.51
2023-02-21T13:55:15.725Z,82.01
2023-02-21T14:00:21.419Z,82.50
2023-02-21T14:05:25.295Z,82.79
2023-02-21T14:10:37.315Z,81.63
2023-02-21T14:15:43.469Z,82.40
2023-02-21T14:20:49.637Z,81.18
2023-02-21T14:26:05.239Z,81.78
2023-02-21T14:31:12.440Z,82.99
2023-02-21T14:36:19.020Z,83.57
2023-02-21T14:41:53.660Z,83.63
2023-02-21T14:47:14.680Z,83.60
2023-02-21T14:52:35.813Z,83.13
2023-02-21T14:58:07.064Z,84.04
2023-02-21T15:03:22.347Z,83.64
2023-02-21T15:08:26.447Z,83.65
2023-02-21T15:13:35.270Z,83.57
2023-02-21T15:18:42.925Z,83.71
2023-02-21T15:23:47.643Z,82.40
2023-02-21T15:29:08.328Z,82.69
2023-02-21T15:34:23.780Z,83.15
2023-02-21T15:39:38.919Z,82.80
2023-02-21T15:44:51.276Z,83.19
2023-02-21T15:50:14.345Z,82.67
2023-02-21T15:55:21.018Z,82.62
2023-02-21T16:00:41.187Z,83.24
2023-02-21T16:05:43.767Z,82.38
2023-02-21T16:10:46.630Z,82.61
2023-02-21T16:15:49.613Z,82.82
2023-02-21T16:21:00.857Z,82.59
2023-02-21T16:26:09.612Z,82.02
2023-02-21T16:31:26.597Z,82.28
2023-02-21T16:36:31.647Z,82.38
2023-02-21T16:41:34.120Z,82.76
2023-02-21T16:46:36.820Z,81.60
2023-02-21T16:51:43.859Z,82.08
2023-02-21T16:56:49.372Z,82.76
2023-02-21T17:01:52.107Z,82.18
2023-02-21T17:07:15.045Z,82.21
2023-02-21T17:12:17.564Z,82.32
2023-02-21T17:17:20.059Z,83.14
2023-02-21T17:22:22.486Z,82.50
2023-02-21T17:27:25.054Z,82.43
2023-02-21T17:32:27.630Z,82.40
2023-02-21T17:37:30.572Z,81.74
2023-02-21T17:42:35.416Z,81.84
2023-02-21T17:47:38.539Z,81.68
2023-02-21T17:52:42.036Z,82.01
2023-02-21T17:57:44.624Z,81.96
2023-02-21T18:02:48.227Z,81.17
2023-02-21T18:08:09.202Z,81.64
2023-02-21T18:13:11.685Z,80.69
2023-02-21T18:18:14.815Z,80.48
2023-02-21T18:23:17.444Z,81.56
2023-02-21T18:28:20.801Z,81.49
2023-02-21T18:33:27.483Z,80.87
2023-02-21T18:38:30.145Z,81.05
2023-02-21T18:43:32.656Z,80.46
2023-02-21T18:48:35.194Z,81.24
2023-02-21T18:53:38.161Z,80.85
2023-02-21T18:58:40.853Z,81.03
2023-02-21T19:03:43.419Z,81.17
2023-02-21T19:08:47.084Z,81.61
2023-02-21T19:13:50.629Z,81.61
2023-02-21T19:18:57.089Z,82.69
2023-02-21T19:24:03.158Z,81.81
2023-02-21T19:29:05.759Z,81.81
2023-02-21T19:34:10.539Z,81.97
2023-02-21T19:39:13.086Z,81.26
2023-02-21T19:44:15.831Z,82.16
2023-02-21T19:49:18.415Z,81.89
2023-02-21T19:54:30.187Z,81.83
2023-02-21T19:59:34.263Z,81.39
2023-02-21T20:04:36.852Z,80.97
2023-02-21T20:09:40.054Z,80.78
2023-02-21T20:14:46.349Z,81.62
2023-02-21T20:19:48.898Z,80.73
2023-02-21T20:24:51.503Z,80.39
2023-02-21T20:29:57.205Z,80.38
2023-02-21T20:35:02.133Z,78.86
2023-02-21T20:40:08.415Z,79.72
2023-02-21T20:45:11.673Z,79.79
2023-02-21T20:50:17.269Z,79.32
2023-02-21T20:55:22.525Z,79.43
2023-02-21T21:00:28.377Z,79.11
2023-02-21T21:05:31.855Z,79.41
2023-02-21T21:10:35.166Z,79.50
2023-02-21T21:15:37.737Z,78.49
2023-02-21T21:20:41.571Z,79.90
2023-02-21T21:25:44.131Z,79.96
2023-02-21T21:30:47.203Z,79.09
2023-02-21T21:35:49.672Z,79.61
2023-02-21T21:40:53.350Z,79.11
2023-02-21T21:45:55.999Z,77.81
2023-02-21T21:50:58.671Z,79.23
2023-02-21T21:56:04.904Z,78.13
2023-02-21T22:01:07.382Z,78.52
2023-02-21T22:06:11.271Z,79.65
2023-02-21T22:11:14.023Z,81.65
2023-02-21T22:16:16.736Z,83.44
2023-02-21T22:21:22.595Z,85.26
2023-02-21T22:26:26.653Z,85.89
2023-02-21T22:31:29.199Z,85.23
2023-02-21T22:36:32.152Z,85.52
2023-02-21T22:41:40.141Z,85.51
2023-02-21T22:46:59.618Z,85.38
2023-02-21T22:52:04.368Z,85.15
2023-02-21T22:57:09.462Z,83.69
2023-02-21T23:02:13.101Z,83.66
2023-02-21T23:07:15.931Z,82.74
2023-02-21T23:12:18.686Z,82.62
2023-02-21T23:17:21.197Z,82.51
2023-02-21T23:22:25.438Z,82.53
2023-02-21T23:27:27.811Z,82.06
2023-02-21T23:32:30.405Z,82.18
2023-02-21T23:37:32.892Z,80.79
2023-02-21T23:42:35.342Z,80.20
2023-02-21T23:47:39.658Z,79.04
2023-02-21T23:52:42.381Z,78.02
2023-02-21T23:57:46.650Z,77.93
